Time;durP1;ratioP1;P1;durP2;ratioP2;P2;SDS_P1;SDS_P2;PMS_P1;PMS_P2;Temp;Humidity;BMP_temperature;BMP_pressure;BME280_temperature;BME280_humidity;BME280_pressure;Samples;Min_cycle;Max_cycle;Signal;HPM_P1;HPM_P2
2021/12/21 00:01:31;;;;;;;;;33.33;28.67;;;;;;;;5134533;27;45526;-85
2021/12/21 00:03:56;;;;;;;;;23.00;21.75;;;;;;;;5134287;27;45796;-82
2021/12/21 00:06:22;;;;;;;;;29.33;27.67;;;;;;;;5134180;27;45421;-82
2021/12/21 00:08:47;;;;;;;;;26.25;24.25;;;;;;;;5134291;27;45456;-83
2021/12/21 00:11:13;;;;;;;;;28.25;20.25;;;;;;;;5115484;27;48187;-83
2021/12/21 00:13:53;;;;;;;;;30.25;26.00;;;;;;;;5134189;27;45327;-85
2021/12/21 00:19:27;;;;;;;;;25.25;22.00;;;;;;;;5134043;27;45344;-83
2021/12/21 00:21:58;;;;;;;;;27.50;23.25;;;;;;;;5117551;27;48376;-82
2021/12/21 00:24:30;;;;;;;;;27.25;23.25;;;;;;;;5137244;27;45329;-83
2021/12/21 00:26:56;;;;;;;;;24.00;23.00;;;;;;;;5137747;27;45455;-82
2021/12/21 00:29:21;;;;;;;;;26.67;22.67;;;;;;;;5119314;27;45701;-82
2021/12/21 00:31:47;;;;;;;;;21.67;20.00;;;;;;;;5137388;27;46248;-83
2021/12/21 00:34:12;;;;;;;;;26.25;21.50;;;;;;;;5137892;27;45540;-85
2021/12/21 00:36:38;;;;;;;;;27.33;22.33;;;;;;;;5138285;27;45313;-86
2021/12/21 00:39:06;;;;;;;;;23.25;21.00;;;;;;;;5137884;27;45311;-86
2021/12/21 00:41:32;;;;;;;;;25.00;21.75;;;;;;;;5119495;27;47887;-85
2021/12/21 00:43:57;;;;;;;;;22.75;20.00;;;;;;;;5138073;27;45468;-86
2021/12/21 00:46:23;;;;;;;;;23.50;22.25;;;;;;;;5138052;27;45380;-86
2021/12/21 00:48:51;;;;;;;;;22.00;20.00;;;;;;;;5137726;27;45262;-86
2021/12/21 00:51:17;;;;;;;;;24.25;20.00;;;;;;;;5137504;27;45478;-86
2021/12/21 00:53:43;;;;;;;;;27.00;22.75;;;;;;;;5136853;27;45499;-85
2021/12/21 00:56:08;;;;;;;;;26.25;23.75;;;;;;;;5137566;27;45860;-85
2021/12/21 00:58:33;;;;;;;;;22.33;19.33;;;;;;;;5118886;27;45563;-85
2021/12/21 01:01:03;;;;;;;;;23.67;21.00;;;;;;;;5137367;27;46260;-86
2021/12/21 01:03:28;;;;;;;;;23.00;22.00;;;;;;;;5137527;27;45385;-85
2021/12/21 01:08:23;;;;;;;;;21.67;19.33;;;;;;;;5137254;27;45418;-85
2021/12/21 01:16:03;;;;;;;;;22.50;20.25;;;;;;;;5137418;27;45273;-86
2021/12/21 01:18:52;;;;;;;;;22.75;21.50;;;;;;;;5137087;27;45437;-85
2021/12/21 01:21:20;;;;;;;;;26.50;22.00;;;;;;;;5137241;27;45664;-85
2021/12/21 01:24:12;;;;;;;;;24.75;20.25;;;;;;;;5118273;27;45704;-86
2021/12/21 01:26:53;;;;;;;;;22.75;20.25;;;;;;;;5137381;27;45487;-86
2021/12/21 01:29:34;;;;;;;;;20.50;18.50;;;;;;;;5118536;27;45527;-85
2021/12/21 01:37:40;;;;;;;;;21.25;17.75;;;;;;;;5136678;27;45414;-86
2021/12/21 01:40:34;;;;;;;;;18.25;16.25;;;;;;;;5137082;27;45443;-85
2021/12/21 01:51:11;;;;;;;;;31.50;25.00;;;;;;;;5136693;27;45584;-86
2021/12/21 01:53:36;;;;;;;;;28.25;27.00;;;;;;;;5136269;27;45524;-86
2021/12/21 01:56:02;;;;;;;;;24.25;19.00;;;;;;;;5117874;27;45406;-85
2021/12/21 01:58:28;;;;;;;;;20.50;19.00;;;;;;;;5136559;27;45358;-82
2021/12/21 02:00:53;;;;;;;;;22.00;20.25;;;;;;;;5117336;27;45652;-82
2021/12/21 02:03:19;;;;;;;;;26.75;22.25;;;;;;;;5117328;27;48230;-83
2021/12/21 02:05:44;;;;;;;;;22.33;22.33;;;;;;;;5117321;27;45385;-83
2021/12/21 02:08:09;;;;;;;;;29.25;22.50;;;;;;;;5116723;27;45474;-83
2021/12/21 02:10:34;;;;;;;;;27.67;24.67;;;;;;;;5135943;27;45546;-83
2021/12/21 02:13:00;;;;;;;;;22.33;20.67;;;;;;;;5135822;27;45446;-83
2021/12/21 02:15:25;;;;;;;;;27.00;24.75;;;;;;;;5117049;27;45371;-82
2021/12/21 02:28:11;;;;;;;;;21.67;21.67;;;;;;;;5135667;27;45466;-83
2021/12/21 02:30:38;;;;;;;;;24.00;23.00;;;;;;;;5116987;27;45430;-84
2021/12/21 02:33:03;;;;;;;;;18.25;16.50;;;;;;;;5135914;27;47317;-83
2021/12/21 02:35:29;;;;;;;;;26.33;25.00;;;;;;;;5135598;27;45371;-83
2021/12/21 02:37:54;;;;;;;;;24.67;22.33;;;;;;;;5116460;27;45333;-83
2021/12/21 02:40:19;;;;;;;;;22.50;19.50;;;;;;;;5116897;27;45545;-83
2021/12/21 02:42:44;;;;;;;;;25.33;22.33;;;;;;;;5135457;27;47824;-83
2021/12/21 02:45:11;;;;;;;;;21.67;19.67;;;;;;;;5115396;27;45388;-83
2021/12/21 02:47:37;;;;;;;;;22.25;18.25;;;;;;;;5116547;27;45304;-82
2021/12/21 02:50:02;;;;;;;;;24.50;21.50;;;;;;;;5116554;27;45501;-82
2021/12/21 02:52:27;;;;;;;;;21.50;19.00;;;;;;;;5134522;27;46288;-83
2021/12/21 02:54:53;;;;;;;;;22.67;19.00;;;;;;;;5116657;27;45346;-83
2021/12/21 02:57:18;;;;;;;;;21.00;18.67;;;;;;;;5116702;27;45519;-86
2021/12/21 02:59:43;;;;;;;;;18.00;17.67;;;;;;;;5136017;27;45362;-86
2021/12/21 03:02:08;;;;;;;;;19.33;18.00;;;;;;;;5117582;27;47693;-86
2021/12/21 03:04:34;;;;;;;;;17.33;17.00;;;;;;;;5117121;27;45412;-85
2021/12/21 03:14:42;;;;;;;;;24.25;21.75;;;;;;;;5135917;27;45890;-84
2021/12/21 03:17:08;;;;;;;;;22.00;16.33;;;;;;;;5118916;27;45393;-85
2021/12/21 03:19:34;;;;;;;;;22.25;20.75;;;;;;;;5116702;27;45498;-85
2021/12/21 03:21:59;;;;;;;;;18.25;16.75;;;;;;;;5135243;27;45487;-86
2021/12/21 03:24:24;;;;;;;;;17.33;16.33;;;;;;;;5118413;27;45687;-85
2021/12/21 03:26:50;;;;;;;;;18.33;18.00;;;;;;;;5116463;27;45417;-85
2021/12/21 03:29:16;;;;;;;;;18.50;15.00;;;;;;;;5117317;27;45577;-86
2021/12/21 03:31:41;;;;;;;;;19.75;17.75;;;;;;;;5135409;27;45599;-86
2021/12/21 03:34:06;;;;;;;;;26.67;23.33;;;;;;;;5116598;27;45424;-86
2021/12/21 03:36:32;;;;;;;;;17.33;16.33;;;;;;;;5117040;27;45480;-84
2021/12/21 03:39:07;;;;;;;;;18.00;16.00;;;;;;;;5115816;27;45420;-87
2021/12/21 03:41:33;;;;;;;;;19.00;19.00;;;;;;;;5134731;27;45324;-85
2021/12/21 03:44:01;;;;;;;;;17.00;13.75;;;;;;;;5116398;27;46049;-86
2021/12/21 03:46:32;;;;;;;;;17.75;16.25;;;;;;;;5118129;27;45401;-85
2021/12/21 03:48:57;;;;;;;;;16.00;13.00;;;;;;;;5116647;27;45601;-86
2021/12/21 03:51:22;;;;;;;;;17.50;16.00;;;;;;;;5134346;27;46200;-85
2021/12/21 03:53:49;;;;;;;;;17.67;13.67;;;;;;;;5115573;27;45386;-86
2021/12/21 03:58:43;;;;;;;;;13.75;13.75;;;;;;;;5138719;27;45508;-83
2021/12/21 04:01:08;;;;;;;;;13.00;10.00;;;;;;;;5138396;27;45497;-85
2021/12/21 04:03:34;;;;;;;;;16.50;14.00;;;;;;;;5138398;27;45321;-84
2021/12/21 04:05:59;;;;;;;;;12.00;10.00;;;;;;;;5119616;27;45444;-86
2021/12/21 04:08:24;;;;;;;;;15.67;15.67;;;;;;;;5119004;27;45574;-86
2021/12/21 04:10:49;;;;;;;;;14.00;13.00;;;;;;;;5138143;27;46365;-87
2021/12/21 04:13:14;;;;;;;;;16.67;13.67;;;;;;;;5119657;27;45468;-83
2021/12/21 04:15:43;;;;;;;;;12.33;10.33;;;;;;;;5119397;27;45365;-83
2021/12/21 04:18:11;;;;;;;;;14.25;13.25;;;;;;;;5119053;27;45616;-85
2021/12/21 04:20:38;;;;;;;;;15.50;14.25;;;;;;;;5119002;27;47284;-83
2021/12/21 04:23:03;;;;;;;;;15.50;12.00;;;;;;;;5118688;27;45360;-83
2021/12/21 04:25:28;;;;;;;;;17.25;13.00;;;;;;;;5119148;27;45423;-84
2021/12/21 04:27:54;;;;;;;;;13.33;13.00;;;;;;;;5119066;27;45599;-83
2021/12/21 04:30:19;;;;;;;;;16.00;14.00;;;;;;;;5119277;27;47035;-84
2021/12/21 04:32:45;;;;;;;;;15.00;13.00;;;;;;;;5137362;27;45438;-82
2021/12/21 04:35:10;;;;;;;;;13.00;13.00;;;;;;;;5118700;27;45467;-82
2021/12/21 04:37:42;;;;;;;;;16.50;15.75;;;;;;;;5137305;27;45476;-82
2021/12/21 04:40:13;;;;;;;;;15.00;12.00;;;;;;;;5118885;27;47387;-83
2021/12/21 04:42:38;;;;;;;;;13.50;12.75;;;;;;;;5118593;27;45815;-83
2021/12/21 04:45:03;;;;;;;;;13.00;11.00;;;;;;;;5118531;27;45243;-83
2021/12/21 04:47:29;;;;;;;;;19.50;16.50;;;;;;;;5136585;27;45309;-82
2021/12/21 04:49:54;;;;;;;;;13.67;13.00;;;;;;;;5137119;27;45417;-82
2021/12/21 04:52:19;;;;;;;;;16.25;13.75;;;;;;;;5117652;27;45532;-83
2021/12/21 04:54:44;;;;;;;;;14.00;14.00;;;;;;;;5119014;27;45794;-83
2021/12/21 04:57:10;;;;;;;;;18.33;14.67;;;;;;;;5118608;27;45450;-83
2021/12/21 04:59:35;;;;;;;;;11.00;10.67;;;;;;;;5118201;27;48164;-83
2021/12/21 05:02:00;;;;;;;;;17.67;16.00;;;;;;;;5118633;27;45599;-83
2021/12/21 05:04:25;;;;;;;;;19.33;14.67;;;;;;;;5118475;27;45328;-83
2021/12/21 05:06:50;;;;;;;;;13.67;12.33;;;;;;;;5137355;27;45634;-82
2021/12/21 05:09:24;;;;;;;;;13.67;13.67;;;;;;;;5116854;27;47958;-82
2021/12/21 05:11:50;;;;;;;;;11.25;11.00;;;;;;;;5118261;27;45646;-83
2021/12/21 05:14:15;;;;;;;;;21.50;17.25;;;;;;;;5118466;27;45326;-84
2021/12/21 05:16:40;;;;;;;;;13.00;12.33;;;;;;;;5117729;27;45674;-82
2021/12/21 05:19:06;;;;;;;;;13.33;12.00;;;;;;;;5136571;27;47202;-86
2021/12/21 05:21:31;;;;;;;;;19.67;15.33;;;;;;;;5137968;27;45277;-86
2021/12/21 05:23:56;;;;;;;;;20.75;13.75;;;;;;;;5137053;27;45265;-86
2021/12/21 05:26:22;;;;;;;;;12.25;11.00;;;;;;;;5137579;27;45421;-84
2021/12/21 05:28:47;;;;;;;;;18.00;16.00;;;;;;;;5137291;27;46272;-86
2021/12/21 05:31:12;;;;;;;;;15.33;13.00;;;;;;;;5137786;27;45510;-86
2021/12/21 05:33:37;;;;;;;;;13.33;13.00;;;;;;;;5118829;27;45347;-86
2021/12/21 05:36:03;;;;;;;;;17.00;14.67;;;;;;;;5137764;27;45501;-86
2021/12/21 05:38:32;;;;;;;;;20.75;19.50;;;;;;;;5118042;27;48165;-85
2021/12/21 05:41:00;;;;;;;;;14.75;13.25;;;;;;;;5118951;27;45598;-86
2021/12/21 05:43:26;;;;;;;;;15.00;14.50;;;;;;;;5137098;27;45401;-86
2021/12/21 05:45:51;;;;;;;;;13.67;13.67;;;;;;;;5137050;27;45364;-86
2021/12/21 05:48:16;;;;;;;;;18.00;17.00;;;;;;;;5136810;27;46730;-85
2021/12/21 05:50:41;;;;;;;;;16.00;13.00;;;;;;;;5118376;27;45405;-87
2021/12/21 05:53:07;;;;;;;;;18.33;17.00;;;;;;;;5136535;27;45565;-87
2021/12/21 05:55:32;;;;;;;;;13.75;13.75;;;;;;;;5118330;27;45559;-86
2021/12/21 05:57:57;;;;;;;;;16.67;16.00;;;;;;;;5118489;27;46338;-85
2021/12/21 06:00:24;;;;;;;;;13.00;12.00;;;;;;;;5148195;27;45419;-85
2021/12/21 06:02:50;;;;;;;;;16.50;15.50;;;;;;;;5142185;27;45455;-85
2021/12/21 06:05:15;;;;;;;;;21.00;17.50;;;;;;;;5133097;27;45626;-85
2021/12/21 06:07:41;;;;;;;;;22.50;17.00;;;;;;;;5135004;27;47651;-85
2021/12/21 06:10:17;;;;;;;;;17.00;15.67;;;;;;;;5130960;27;45179;-85
2021/12/21 06:25:57;;;;;;;;;17.75;16.50;;;;;;;;5149018;27;45302;-84
2021/12/21 06:28:22;;;;;;;;;16.50;16.50;;;;;;;;5117750;27;47520;-85
2021/12/21 06:30:47;;;;;;;;;17.00;16.00;;;;;;;;5118850;27;45626;-84
2021/12/21 06:33:13;;;;;;;;;16.00;15.50;;;;;;;;5141263;27;45208;-84
2021/12/21 06:35:39;;;;;;;;;15.25;14.75;;;;;;;;5137440;27;45396;-83
2021/12/21 06:38:04;;;;;;;;;16.00;14.00;;;;;;;;5143672;27;45548;-82
2021/12/21 06:40:30;;;;;;;;;20.75;17.50;;;;;;;;5144816;27;45307;-84
2021/12/21 06:42:55;;;;;;;;;16.50;16.50;;;;;;;;5136755;27;45522;-85
2021/12/21 06:45:32;;;;;;;;;13.25;13.25;;;;;;;;5118857;27;45576;-82
2021/12/21 06:53:25;;;;;;;;;12.50;12.00;;;;;;;;5135104;27;45433;-82
2021/12/21 06:55:51;;;;;;;;;15.50;13.50;;;;;;;;5118927;27;45332;-82
2021/12/21 06:58:16;;;;;;;;;18.33;14.67;;;;;;;;5119386;27;47214;-86
2021/12/21 07:00:42;;;;;;;;;18.00;17.00;;;;;;;;5138415;27;45304;-85
2021/12/21 07:03:07;;;;;;;;;19.50;17.75;;;;;;;;5123410;27;45364;-82
2021/12/21 07:05:32;;;;;;;;;19.00;17.00;;;;;;;;5124857;27;45243;-84
2021/12/21 07:07:58;;;;;;;;;18.75;17.25;;;;;;;;5123016;27;47461;-83
2021/12/21 07:10:26;;;;;;;;;19.50;16.25;;;;;;;;5118322;27;45442;-85
2021/12/21 07:18:29;;;;;;;;;23.25;16.75;;;;;;;;5136608;27;45653;-83
2021/12/21 07:20:59;;;;;;;;;18.50;16.75;;;;;;;;5119454;27;45519;-84
2021/12/21 07:23:24;;;;;;;;;17.50;17.25;;;;;;;;5141538;27;45269;-85
2021/12/21 07:25:52;;;;;;;;;15.67;13.33;;;;;;;;5141110;27;45296;-83
2021/12/21 07:28:17;;;;;;;;;20.50;17.75;;;;;;;;5139635;27;46686;-84
2021/12/21 07:30:42;;;;;;;;;18.33;18.33;;;;;;;;5148608;27;45048;-85
2021/12/21 07:33:08;;;;;;;;;17.00;15.00;;;;;;;;5146599;27;45657;-83
2021/12/21 07:35:33;;;;;;;;;15.75;13.50;;;;;;;;5143551;27;45432;-84
2021/12/21 07:38:00;;;;;;;;;16.33;15.00;;;;;;;;5120890;27;48222;-82
2021/12/21 07:40:25;;;;;;;;;18.25;17.75;;;;;;;;5122663;27;45465;-84
2021/12/21 07:42:50;;;;;;;;;19.50;17.00;;;;;;;;5122108;27;45567;-85
2021/12/21 07:45:15;;;;;;;;;14.67;14.67;;;;;;;;5130824;27;45593;-86
2021/12/21 07:47:41;;;;;;;;;19.00;16.33;;;;;;;;5131932;27;47588;-85
2021/12/21 07:50:06;;;;;;;;;18.75;17.50;;;;;;;;5149937;27;45294;-85
2021/12/21 07:52:32;;;;;;;;;22.25;20.75;;;;;;;;5154175;27;45273;-86
2021/12/21 07:54:57;;;;;;;;;20.33;19.67;;;;;;;;5144878;27;45341;-85
2021/12/21 07:57:22;;;;;;;;;14.67;14.00;;;;;;;;5124468;27;47103;-85
2021/12/21 07:59:48;;;;;;;;;14.33;13.00;;;;;;;;5140539;27;45526;-86
2021/12/21 08:02:14;;;;;;;;;13.25;13.25;;;;;;;;5123779;27;45583;-86
2021/12/21 08:04:41;;;;;;;;;16.25;14.50;;;;;;;;5121034;27;45512;-85
2021/12/21 08:07:11;;;;;;;;;24.50;21.50;;;;;;;;5137543;27;46590;-85
2021/12/21 08:09:40;;;;;;;;;18.00;17.00;;;;;;;;5144119;27;45856;-86
2021/12/21 08:14:37;;;;;;;;;19.75;18.25;;;;;;;;5140287;27;45467;-86
2021/12/21 08:17:02;;;;;;;;;19.33;17.67;;;;;;;;5137838;27;46241;-84
2021/12/21 08:19:27;;;;;;;;;19.67;19.00;;;;;;;;5138194;27;45281;-85
2021/12/21 08:21:53;;;;;;;;;19.67;17.33;;;;;;;;5137942;27;45426;-85
2021/12/21 08:24:18;;;;;;;;;17.00;16.67;;;;;;;;5138074;27;45372;-85
2021/12/21 08:26:43;;;;;;;;;19.00;17.00;;;;;;;;5119057;27;47954;-84
2021/12/21 08:29:09;;;;;;;;;19.00;17.67;;;;;;;;5138482;27;45413;-84
2021/12/21 08:31:34;;;;;;;;;19.67;17.00;;;;;;;;5139826;27;45918;-84
2021/12/21 08:33:59;;;;;;;;;16.67;16.00;;;;;;;;5139413;27;45515;-85
2021/12/21 08:36:24;;;;;;;;;16.67;15.00;;;;;;;;5119015;27;48703;-85
2021/12/21 08:38:49;;;;;;;;;9.67;9.00;;;;;;;;5123311;27;45592;-85
2021/12/21 08:41:15;;;;;;;;;19.67;16.00;;;;;;;;5121003;27;45718;-84
2021/12/21 08:43:40;;;;;;;;;8.33;8.33;;;;;;;;5124853;27;45487;-83
2021/12/21 08:46:08;;;;;;;;;19.00;16.67;;;;;;;;5137526;27;45480;-81
2021/12/21 08:48:33;;;;;;;;;20.00;17.00;;;;;;;;5130605;27;45713;-83
2021/12/21 08:51:00;;;;;;;;;20.00;18.33;;;;;;;;5133801;27;45070;-83
2021/12/21 08:53:25;;;;;;;;;18.75;17.50;;;;;;;;5152598;27;45372;-83
2021/12/21 08:55:51;;;;;;;;;19.67;16.67;;;;;;;;5135088;27;46573;-82
2021/12/21 08:58:18;;;;;;;;;19.75;15.50;;;;;;;;5135391;27;45144;-83
2021/12/21 09:00:44;;;;;;;;;15.00;13.50;;;;;;;;5152618;27;45180;-84
2021/12/21 09:03:09;;;;;;;;;21.25;18.75;;;;;;;;5154621;27;45054;-84
2021/12/21 09:05:35;;;;;;;;;28.00;23.25;;;;;;;;5136641;27;46771;-84
2021/12/21 09:08:01;;;;;;;;;18.00;16.75;;;;;;;;5135329;27;45592;-84
2021/12/21 09:10:27;;;;;;;;;18.25;16.00;;;;;;;;5155700;27;44874;-83
2021/12/21 09:12:53;;;;;;;;;17.50;16.50;;;;;;;;5153002;27;45009;-82
2021/12/21 09:15:19;;;;;;;;;21.75;19.50;;;;;;;;5132338;27;48114;-83
2021/12/21 09:17:44;;;;;;;;;19.75;18.25;;;;;;;;5117958;27;45730;-84
2021/12/21 09:20:13;;;;;;;;;19.25;17.00;;;;;;;;5118099;27;45671;-83
2021/12/21 09:22:38;;;;;;;;;23.50;20.75;;;;;;;;5117874;27;45376;-83
2021/12/21 09:25:03;;;;;;;;;24.00;18.33;;;;;;;;5136877;27;46397;-84
2021/12/21 09:27:29;;;;;;;;;24.50;21.75;;;;;;;;5136233;27;45307;-81
2021/12/21 09:29:54;;;;;;;;;17.33;15.67;;;;;;;;5137050;27;45389;-84
2021/12/21 09:32:19;;;;;;;;;20.00;20.00;;;;;;;;5136808;27;45399;-84
2021/12/21 09:34:45;;;;;;;;;24.33;19.67;;;;;;;;5117884;27;48106;-84
2021/12/21 09:37:15;;;;;;;;;27.50;23.00;;;;;;;;5136409;27;45548;-83
2021/12/21 09:39:45;;;;;;;;;23.75;18.25;;;;;;;;5136900;27;45400;-83
2021/12/21 09:42:12;;;;;;;;;20.50;18.50;;;;;;;;5117980;27;45368;-83
2021/12/21 09:44:38;;;;;;;;;17.00;17.00;;;;;;;;5117764;27;49008;-83
2021/12/21 09:47:06;;;;;;;;;26.00;23.25;;;;;;;;5117711;27;45782;-81
2021/12/21 09:49:31;;;;;;;;;23.50;19.75;;;;;;;;5136531;27;45405;-84
2021/12/21 09:51:57;;;;;;;;;20.67;18.00;;;;;;;;5135907;27;45521;-83
2021/12/21 09:54:24;;;;;;;;;21.00;19.25;;;;;;;;5116839;27;47365;-83
2021/12/21 09:56:49;;;;;;;;;23.25;21.25;;;;;;;;5136130;27;45579;-82
2021/12/21 09:59:15;;;;;;;;;22.67;22.33;;;;;;;;5136402;27;45503;-81
2021/12/21 10:01:40;;;;;;;;;26.33;25.00;;;;;;;;5136151;27;45216;-82
2021/12/21 10:04:05;;;;;;;;;24.33;22.67;;;;;;;;5136179;27;45310;-85
2021/12/21 10:06:41;;;;;;;;;20.33;20.00;;;;;;;;5136351;27;45270;-85
2021/12/21 10:09:06;;;;;;;;;21.75;19.75;;;;;;;;5136544;27;45383;-84
2021/12/21 10:11:40;;;;;;;;;21.75;21.00;;;;;;;;5117422;27;45594;-85
2021/12/21 10:14:06;;;;;;;;;29.00;26.25;;;;;;;;5117120;27;48945;-85
2021/12/21 10:16:31;;;;;;;;;27.75;23.00;;;;;;;;5136147;27;45558;-85
2021/12/21 10:18:56;;;;;;;;;23.33;23.33;;;;;;;;5117283;27;45423;-85
2021/12/21 10:21:21;;;;;;;;;27.67;25.00;;;;;;;;5117656;27;45396;-85
2021/12/21 10:23:48;;;;;;;;;22.67;21.33;;;;;;;;5116811;27;48210;-85
2021/12/21 10:26:18;;;;;;;;;25.50;23.50;;;;;;;;5135797;27;45377;-84
2021/12/21 10:28:45;;;;;;;;;30.00;25.25;;;;;;;;5135944;27;45377;-85
2021/12/21 10:31:30;;;;;;;;;20.75;18.50;;;;;;;;5117296;27;45559;-85
2021/12/21 10:33:57;;;;;;;;;27.00;25.75;;;;;;;;5135815;27;46060;-84
2021/12/21 10:36:25;;;;;;;;;23.00;21.25;;;;;;;;5117205;27;45354;-84
2021/12/21 10:38:53;;;;;;;;;22.50;21.00;;;;;;;;5116754;27;45474;-84
2021/12/21 10:41:21;;;;;;;;;28.50;23.25;;;;;;;;5117021;27;45579;-85
2021/12/21 10:43:56;;;;;;;;;29.75;26.75;;;;;;;;5135717;27;46333;-84
2021/12/21 10:46:22;;;;;;;;;25.00;20.75;;;;;;;;5111818;27;45776;-85
2021/12/21 10:48:49;;;;;;;;;26.67;22.00;;;;;;;;5135923;27;45381;-83
2021/12/21 10:51:15;;;;;;;;;23.25;21.25;;;;;;;;5135606;27;45564;-86
2021/12/21 10:53:44;;;;;;;;;26.50;22.50;;;;;;;;5116580;27;48266;-85
2021/12/21 10:56:09;;;;;;;;;24.50;22.50;;;;;;;;5135705;27;45369;-82
2021/12/21 10:58:39;;;;;;;;;29.67;25.67;;;;;;;;5135510;27;45312;-81
2021/12/21 11:01:06;;;;;;;;;25.75;23.00;;;;;;;;5135529;27;45395;-82
2021/12/21 11:03:33;;;;;;;;;24.25;21.25;;;;;;;;5116421;27;48544;-85
2021/12/21 11:06:12;;;;;;;;;32.00;27.50;;;;;;;;5134071;27;45835;-85
2021/12/21 11:08:42;;;;;;;;;30.50;28.25;;;;;;;;5116459;27;45562;-85
2021/12/21 11:11:11;;;;;;;;;29.75;28.25;;;;;;;;5135376;27;45376;-84
2021/12/21 11:13:37;;;;;;;;;27.25;25.50;;;;;;;;5135026;27;45407;-82
2021/12/21 11:16:06;;;;;;;;;27.00;23.25;;;;;;;;5135083;27;45465;-82
2021/12/21 11:18:33;;;;;;;;;22.50;21.00;;;;;;;;5135228;27;45364;-83
2021/12/21 11:20:58;;;;;;;;;26.50;24.50;;;;;;;;5116526;27;45355;-82
2021/12/21 11:23:24;;;;;;;;;26.50;22.50;;;;;;;;5115939;27;47021;-84
2021/12/21 11:25:53;;;;;;;;;22.50;22.00;;;;;;;;5116226;27;46408;-81
2021/12/21 11:28:24;;;;;;;;;23.75;22.00;;;;;;;;5116661;27;45410;-82
2021/12/21 11:30:50;;;;;;;;;24.50;22.25;;;;;;;;5134720;27;45415;-85
2021/12/21 11:33:18;;;;;;;;;25.50;22.50;;;;;;;;5116241;27;47183;-83
2021/12/21 11:38:10;;;;;;;;;28.00;25.25;;;;;;;;5134546;27;45479;-84
2021/12/21 11:40:38;;;;;;;;;19.25;18.50;;;;;;;;5134760;27;45301;-84
2021/12/21 11:43:06;;;;;;;;;21.00;18.50;;;;;;;;5134758;27;45359;-82
2021/12/21 11:45:45;;;;;;;;;30.00;27.00;;;;;;;;5134724;27;45463;-84
2021/12/21 11:48:10;;;;;;;;;24.00;21.25;;;;;;;;5134928;27;45525;-84
2021/12/21 11:50:36;;;;;;;;;23.33;22.67;;;;;;;;5115625;27;45460;-84
2021/12/21 11:53:06;;;;;;;;;20.50;19.25;;;;;;;;5134095;27;46805;-83
2021/12/21 11:55:32;;;;;;;;;29.25;26.50;;;;;;;;5115639;27;45321;-81
2021/12/21 11:57:59;;;;;;;;;24.00;23.00;;;;;;;;5116067;27;45440;-81
2021/12/21 12:00:29;;;;;;;;;26.00;24.50;;;;;;;;5115770;27;45430;-85
2021/12/21 12:02:55;;;;;;;;;25.75;23.00;;;;;;;;5134395;27;46395;-81
2021/12/21 12:05:31;;;;;;;;;32.50;28.75;;;;;;;;5115960;27;45828;-83
2021/12/21 12:08:07;;;;;;;;;31.00;27.25;;;;;;;;5134095;27;45444;-84
2021/12/21 12:10:34;;;;;;;;;33.50;31.25;;;;;;;;5115691;27;45375;-81
2021/12/21 12:13:09;;;;;;;;;39.50;34.00;;;;;;;;5134596;27;46568;-82
2021/12/21 12:15:53;;;;;;;;;23.50;21.25;;;;;;;;5115630;27;45859;-81
2021/12/21 12:18:23;;;;;;;;;27.25;23.75;;;;;;;;5118586;27;45374;-86
2021/12/21 12:20:48;;;;;;;;;27.50;24.25;;;;;;;;5119231;27;45618;-82
2021/12/21 12:23:16;;;;;;;;;28.50;21.75;;;;;;;;5118325;27;47904;-82
2021/12/21 12:25:48;;;;;;;;;31.50;28.00;;;;;;;;5137835;27;45293;-83
2021/12/21 12:28:20;;;;;;;;;28.75;25.25;;;;;;;;5137758;27;45341;-86
2021/12/21 12:30:47;;;;;;;;;30.50;26.50;;;;;;;;5138313;27;45363;-85
2021/12/21 12:33:12;;;;;;;;;25.50;23.25;;;;;;;;5119223;27;48223;-86
2021/12/21 12:35:41;;;;;;;;;25.00;21.33;;;;;;;;5119237;27;45924;-86
2021/12/21 12:38:16;;;;;;;;;27.75;25.00;;;;;;;;5138109;27;45563;-84
2021/12/21 12:40:43;;;;;;;;;28.00;26.75;;;;;;;;5119106;27;45333;-86
2021/12/21 12:43:08;;;;;;;;;23.00;22.75;;;;;;;;5138139;27;46885;-85
2021/12/21 12:45:35;;;;;;;;;30.00;25.00;;;;;;;;5137963;27;45607;-84
2021/12/21 12:48:01;;;;;;;;;24.50;23.00;;;;;;;;5137651;27;45487;-86
2021/12/21 12:50:29;;;;;;;;;26.00;24.25;;;;;;;;5137669;27;45304;-86
2021/12/21 12:52:56;;;;;;;;;26.00;22.75;;;;;;;;5118488;27;47316;-86
2021/12/21 12:55:22;;;;;;;;;27.00;24.75;;;;;;;;5138143;27;45464;-85
2021/12/21 12:58:00;;;;;;;;;29.00;25.25;;;;;;;;5118832;27;45361;-85
2021/12/21 13:00:30;;;;;;;;;25.25;23.25;;;;;;;;5118681;27;45563;-81
2021/12/21 13:03:00;;;;;;;;;29.25;27.00;;;;;;;;5137088;27;46258;-85
2021/12/21 13:05:27;;;;;;;;;29.00;24.50;;;;;;;;5118777;27;45363;-85
2021/12/21 13:07:52;;;;;;;;;34.00;26.50;;;;;;;;5137013;27;45546;-83
2021/12/21 13:10:17;;;;;;;;;39.50;37.75;;;;;;;;5118674;27;45392;-84
2021/12/21 13:12:42;;;;;;;;;24.33;24.00;;;;;;;;5137204;27;45348;-81
2021/12/21 13:15:08;;;;;;;;;30.33;28.00;;;;;;;;5118113;27;45299;-81
2021/12/21 13:17:33;;;;;;;;;27.00;25.50;;;;;;;;5118668;27;45378;-81
2021/12/21 13:19:59;;;;;;;;;28.33;27.00;;;;;;;;5137094;27;45527;-81
2021/12/21 13:22:25;;;;;;;;;31.00;29.25;;;;;;;;5136409;27;45435;-82
2021/12/21 13:24:52;;;;;;;;;26.50;25.25;;;;;;;;5137063;27;45346;-83
2021/12/21 13:27:20;;;;;;;;;29.25;28.00;;;;;;;;5118272;27;45698;-85
2021/12/21 13:29:45;;;;;;;;;28.50;24.75;;;;;;;;5117091;27;45433;-85
2021/12/21 13:32:11;;;;;;;;;25.00;22.75;;;;;;;;5136765;27;45482;-85
2021/12/21 13:34:39;;;;;;;;;28.50;23.75;;;;;;;;5118082;27;45417;-83
2021/12/21 13:37:07;;;;;;;;;30.25;27.75;;;;;;;;5117902;27;45450;-82
2021/12/21 13:39:34;;;;;;;;;25.25;24.25;;;;;;;;5117992;27;45374;-84
2021/12/21 13:42:07;;;;;;;;;28.50;26.25;;;;;;;;5136739;27;46153;-81
2021/12/21 13:44:41;;;;;;;;;26.50;23.25;;;;;;;;5137046;27;45755;-82
2021/12/21 13:47:26;;;;;;;;;34.25;28.75;;;;;;;;5136689;27;45558;-86
2021/12/21 13:50:25;;;;;;;;;29.00;25.50;;;;;;;;5136444;27;45238;-85
2021/12/21 13:52:55;;;;;;;;;29.75;28.25;;;;;;;;5079023;27;45764;-82
2021/12/21 13:55:20;;;;;;;;;38.75;31.00;;;;;;;;5117697;27;45331;-84
2021/12/21 13:57:52;;;;;;;;;29.67;26.67;;;;;;;;5136428;27;45374;-85
2021/12/21 14:00:18;;;;;;;;;32.00;28.75;;;;;;;;5117864;27;45433;-83
2021/12/21 14:02:50;;;;;;;;;29.25;27.75;;;;;;;;5117566;27;46318;-82
2021/12/21 14:05:18;;;;;;;;;25.00;23.25;;;;;;;;5117859;27;46046;-86
2021/12/21 14:07:44;;;;;;;;;31.00;28.00;;;;;;;;5117139;27;45459;-84
2021/12/21 14:10:13;;;;;;;;;30.00;27.00;;;;;;;;5136138;27;45500;-83
2021/12/21 14:12:38;;;;;;;;;27.75;25.50;;;;;;;;5117353;27;47338;-84
2021/12/21 14:15:05;;;;;;;;;28.00;26.50;;;;;;;;5136101;27;45470;-85
2021/12/21 14:17:30;;;;;;;;;34.00;32.00;;;;;;;;5117412;27;45450;-84
2021/12/21 14:19:56;;;;;;;;;29.67;26.67;;;;;;;;5136258;27;45331;-85
2021/12/21 14:22:22;;;;;;;;;31.00;28.50;;;;;;;;5116774;27;47326;-85
2021/12/21 14:24:49;;;;;;;;;31.25;27.50;;;;;;;;5116965;27;45367;-85
2021/12/21 14:27:15;;;;;;;;;34.50;30.25;;;;;;;;5117177;27;45398;-84
2021/12/21 14:29:42;;;;;;;;;32.50;28.50;;;;;;;;5117338;27;45442;-82
2021/12/21 14:34:37;;;;;;;;;24.50;21.50;;;;;;;;5135803;27;45251;-82
2021/12/21 14:37:05;;;;;;;;;21.00;21.00;;;;;;;;5117000;27;45526;-82
2021/12/21 14:39:31;;;;;;;;;26.50;23.25;;;;;;;;5135673;27;45394;-85
2021/12/21 14:41:59;;;;;;;;;25.50;22.50;;;;;;;;5116689;27;47645;-85
2021/12/21 14:44:25;;;;;;;;;28.25;24.50;;;;;;;;5116963;27;46019;-85
2021/12/21 14:47:01;;;;;;;;;28.50;25.25;;;;;;;;5135700;27;45393;-85
2021/12/21 14:49:31;;;;;;;;;26.50;25.75;;;;;;;;5135776;27;45432;-82
2021/12/21 14:51:59;;;;;;;;;25.25;24.00;;;;;;;;5134938;27;45382;-85
2021/12/21 14:54:46;;;;;;;;;30.00;25.00;;;;;;;;5136315;27;45865;-86
2021/12/21 14:57:10;;;;;;;;;26.75;24.75;;;;;;;;5135645;27;45532;-86
2021/12/21 14:59:36;;;;;;;;;23.00;22.67;;;;;;;;5135677;27;45419;-84
2021/12/21 15:02:06;;;;;;;;;27.75;24.50;;;;;;;;5116458;27;47118;-82
2021/12/21 15:04:32;;;;;;;;;27.25;24.75;;;;;;;;5116848;27;45751;-85
2021/12/21 15:06:57;;;;;;;;;30.75;27.50;;;;;;;;5135225;27;45287;-81
2021/12/21 15:09:23;;;;;;;;;29.50;26.50;;;;;;;;5135462;27;45747;-81
2021/12/21 15:11:52;;;;;;;;;34.00;31.67;;;;;;;;5134977;27;45415;-86
2021/12/21 15:14:18;;;;;;;;;25.00;23.50;;;;;;;;5116765;27;45757;-80
2021/12/21 15:16:44;;;;;;;;;27.00;25.25;;;;;;;;5116563;27;45504;-81
2021/12/21 15:19:09;;;;;;;;;23.25;23.25;;;;;;;;5135412;27;45344;-83
2021/12/21 15:21:34;;;;;;;;;27.67;24.67;;;;;;;;5134914;27;46070;-81
2021/12/21 15:24:01;;;;;;;;;29.00;27.00;;;;;;;;5116225;27;45448;-80
2021/12/21 15:26:29;;;;;;;;;28.25;25.00;;;;;;;;5135194;27;45280;-81
2021/12/21 15:28:55;;;;;;;;;30.50;27.00;;;;;;;;5116498;27;45676;-81
2021/12/21 15:31:20;;;;;;;;;34.67;29.00;;;;;;;;5116224;27;46336;-84
2021/12/21 15:33:45;;;;;;;;;37.67;28.67;;;;;;;;5116452;27;45795;-85